Time;durP1;ratioP1;P1;durP2;ratioP2;P2;SDS_P1;SDS_P2;PMS_P1;PMS_P2;Temp;Humidity;BMP_temperature;BMP_pressure;BME280_temperature;BME280_humidity;BME280_pressure;Samples;Min_cycle;Max_cycle;Signal;HPM_P1;HPM_P2
2022/08/19 00:00:45;;;;;;;6.68;6.07;;;;;;;18.42;62.87;93260.34;5110739;28;20035;-67
2022/08/19 00:03:10;;;;;;;7.28;5.85;;;;;;;18.46;62.79;93257.81;5110863;28;20032;-67
2022/08/19 00:05:36;;;;;;;8.05;6.13;;;;;;;18.35;62.40;93256.44;5110709;28;20028;-67
2022/08/19 00:08:02;;;;;;;6.93;6.22;;;;;;;18.41;62.95;93262.41;5111079;28;20088;-66
2022/08/19 00:10:27;;;;;;;8.23;6.18;;;;;;;18.39;62.80;93256.69;5110975;28;20031;-66
2022/08/19 00:12:53;;;;;;;7.00;6.07;;;;;;;18.40;62.79;93260.97;5110707;28;20112;-64
2022/08/19 00:15:20;;;;;;;7.15;6.45;;;;;;;18.32;63.12;93257.66;5110994;28;20023;-65
2022/08/19 00:17:46;;;;;;;7.22;6.53;;;;;;;18.37;63.19;93264.22;5110571;28;20084;-65
2022/08/19 00:20:17;;;;;;;7.50;6.35;;;;;;;18.10;63.79;93248.59;5110934;28;20031;-66
2022/08/19 00:22:44;;;;;;;7.82;7.03;;;;;;;18.11;63.56;93261.25;5110815;28;20023;-66
2022/08/19 00:25:10;;;;;;;7.90;6.05;;;;;;;18.04;63.72;93267.06;5110870;28;20055;-67
2022/08/19 00:27:35;;;;;;;6.88;6.18;;;;;;;17.97;63.53;93268.00;5110557;28;20024;-66
2022/08/19 00:30:03;;;;;;;6.47;5.88;;;;;;;17.96;62.84;93261.69;5110501;28;20015;-66
2022/08/19 00:32:28;;;;;;;7.80;6.22;;;;;;;17.83;63.86;93267.84;5110493;28;20055;-66
2022/08/19 00:34:54;;;;;;;7.10;6.38;;;;;;;17.85;63.75;93265.16;5110751;28;20129;-65
2022/08/19 00:37:22;;;;;;;6.80;6.20;;;;;;;17.93;64.11;93268.47;5110771;28;20085;-65
2022/08/19 00:39:49;;;;;;;7.68;6.50;;;;;;;17.87;64.28;93267.34;5110799;28;20028;-66
2022/08/19 00:42:15;;;;;;;23.67;6.43;;;;;;;17.91;63.74;93268.34;5110618;28;20110;-66
2022/08/19 00:44:42;;;;;;;9.02;6.45;;;;;;;17.98;63.76;93269.47;5110744;28;20031;-65
2022/08/19 00:47:08;;;;;;;6.25;5.65;;;;;;;17.82;63.58;93271.22;5110621;28;20024;-66
2022/08/19 00:49:37;;;;;;;8.32;6.10;;;;;;;17.87;63.36;93264.56;5110671;28;20089;-66
2022/08/19 00:52:14;;;;;;;7.35;6.00;;;;;;;17.93;63.03;93262.88;5110402;28;20480;-65
2022/08/19 00:54:40;;;;;;;8.88;6.18;;;;;;;17.88;63.26;93266.75;5092070;28;20043;-65
2022/08/19 00:57:12;;;;;;;7.93;5.75;;;;;;;17.90;63.47;93260.56;5110591;28;20031;-65
2022/08/19 00:59:38;;;;;;;6.50;5.85;;;;;;;17.76;63.73;93265.25;5092687;28;20059;-66
2022/08/19 01:02:04;;;;;;;6.72;6.13;;;;;;;17.71;63.94;93267.06;5092140;28;20032;-66
2022/08/19 01:04:30;;;;;;;6.90;6.30;;;;;;;17.58;64.49;93270.41;5110223;28;20039;-66
2022/08/19 01:06:56;;;;;;;6.45;5.85;;;;;;;17.57;64.07;93268.19;5110132;28;20031;-67
2022/08/19 01:09:22;;;;;;;6.95;6.25;;;;;;;17.31;64.77;93273.47;5113753;28;20024;-67
2022/08/19 01:11:47;;;;;;;6.85;6.15;;;;;;;17.37;64.49;93270.34;5114012;28;20058;-67
2022/08/19 01:14:13;;;;;;;6.22;5.72;;;;;;;17.43;64.26;93270.78;5113958;28;20110;-67
2022/08/19 01:16:39;;;;;;;8.02;6.38;;;;;;;17.46;64.26;93277.94;5114226;28;20035;-67
2022/08/19 01:19:17;;;;;;;7.00;6.30;;;;;;;17.31;65.18;93279.06;5095664;28;20027;-66
2022/08/19 01:21:58;;;;;;;6.72;5.93;;;;;;;17.22;64.76;93245.63;5096018;28;20023;-66
2022/08/19 01:24:23;;;;;;;6.85;6.15;;;;;;;17.20;65.64;93276.94;5095876;28;20036;-62
2022/08/19 01:26:49;;;;;;;7.38;6.50;;;;;;;17.23;65.50;93270.16;5113743;28;20096;-62
2022/08/19 01:29:14;;;;;;;11.38;6.38;;;;;;;17.18;65.22;93267.69;5112966;28;20023;-62
2022/08/19 01:31:40;;;;;;;7.05;6.22;;;;;;;17.22;64.68;93270.75;5115117;27;20027;-63
2022/08/19 01:34:06;;;;;;;6.68;5.78;;;;;;;16.98;65.97;93267.06;5134106;27;20235;-64
2022/08/19 01:36:33;;;;;;;6.40;5.80;;;;;;;17.06;65.29;93267.63;5134235;27;20019;-64
2022/08/19 01:39:00;;;;;;;8.50;6.65;;;;;;;17.11;65.59;93276.97;5134330;27;20494;-64
2022/08/19 01:41:25;;;;;;;6.97;6.00;;;;;;;16.92;66.05;93266.66;5134081;27;20046;-64
2022/08/19 01:43:52;;;;;;;6.70;6.10;;;;;;;16.76;66.33;93248.13;5134001;27;20400;-62
2022/08/19 01:46:18;;;;;;;8.50;5.72;;;;;;;17.02;65.66;93258.97;5134160;27;20034;-64
2022/08/19 01:48:44;;;;;;;8.68;6.07;;;;;;;17.13;65.40;93258.31;5133886;27;20027;-64
2022/08/19 01:51:10;;;;;;;8.65;6.90;;;;;;;16.86;66.57;93265.53;5134104;27;20026;-64
2022/08/19 01:53:37;;;;;;;9.50;6.40;;;;;;;16.81;66.00;93247.78;5133509;27;20019;-64
2022/08/19 01:56:03;;;;;;;7.60;6.32;;;;;;;17.03;65.48;93256.91;5133861;27;20054;-64
2022/08/19 01:58:36;;;;;;;7.47;6.65;;;;;;;16.99;65.50;93256.66;5133818;27;20027;-65
2022/08/19 02:01:02;;;;;;;7.63;6.47;;;;;;;16.84;66.29;93257.03;5133415;27;20019;-68
2022/08/19 02:03:28;;;;;;;8.25;6.20;;;;;;;16.77;66.20;93255.13;5133938;27;20041;-66
2022/08/19 02:05:59;;;;;;;7.60;6.32;;;;;;;16.85;65.63;93252.91;5133901;27;20019;-67
2022/08/19 02:08:29;;;;;;;6.85;6.15;;;;;;;16.86;64.90;93246.75;5133780;27;20038;-67
2022/08/19 02:10:55;;;;;;;7.22;6.43;;;;;;;16.93;64.68;93253.44;5133483;27;20608;-66
2022/08/19 02:13:20;;;;;;;7.65;6.18;;;;;;;16.83;65.37;93261.16;5133399;27;20069;-66
2022/08/19 02:15:46;;;;;;;7.97;6.50;;;;;;;16.79;65.28;93258.78;5133373;27;20062;-66
2022/08/19 02:18:12;;;;;;;9.63;5.95;;;;;;;16.38;66.68;93246.91;5133511;27;20031;-64
2022/08/19 02:20:39;;;;;;;9.02;6.35;;;;;;;16.60;65.65;93267.97;5133180;27;20027;-63
2022/08/19 02:23:05;;;;;;;6.43;5.82;;;;;;;16.65;65.76;93266.91;5115154;27;20111;-64
2022/08/19 02:25:31;;;;;;;6.60;6.00;;;;;;;16.49;66.41;93270.63;5133509;27;20102;-65
2022/08/19 02:27:56;;;;;;;6.88;5.82;;;;;;;16.51;65.78;93274.31;5133119;27;20499;-66
2022/08/19 02:30:22;;;;;;;7.18;5.85;;;;;;;16.53;65.69;93276.50;5132570;27;20019;-66
2022/08/19 02:32:47;;;;;;;7.97;6.47;;;;;;;16.45;65.86;93270.34;5133282;27;20037;-66
2022/08/19 02:35:14;;;;;;;12.15;6.63;;;;;;;16.43;66.27;93276.53;5133025;27;20488;-66
2022/08/19 02:40:25;;;;;;;6.82;6.15;;;;;;;16.46;66.07;93280.91;5133148;27;20045;-64
2022/08/19 02:42:50;;;;;;;6.78;6.18;;;;;;;16.47;66.16;93274.00;5133109;27;20019;-63
2022/08/19 02:45:16;;;;;;;9.48;6.10;;;;;;;16.48;66.26;93283.13;5132982;27;20060;-63
2022/08/19 02:47:41;;;;;;;7.70;6.55;;;;;;;16.55;66.01;93287.78;5133014;27;20079;-69
2022/08/19 02:50:07;;;;;;;6.80;6.20;;;;;;;16.43;66.87;93284.88;5132876;27;20628;-70
2022/08/19 02:52:33;;;;;;;7.47;6.75;;;;;;;16.16;67.73;93289.91;5132923;27;20465;-70
2022/08/19 02:54:59;;;;;;;8.88;6.55;;;;;;;15.99;67.96;93287.31;5132413;27;20567;-68
2022/08/19 02:57:25;;;;;;;9.68;6.50;;;;;;;16.18;67.49;93294.91;5132776;27;20031;-69
2022/08/19 02:59:51;;;;;;;6.40;5.80;;;;;;;16.14;67.02;93291.81;5132489;27;20411;-71
2022/08/19 03:02:17;;;;;;;7.38;6.65;;;;;;;16.09;67.02;93296.38;5132557;27;20103;-67
2022/08/19 03:04:42;;;;;;;7.50;6.80;;;;;;;15.98;67.31;93268.41;5132699;27;20068;-65
2022/08/19 03:07:09;;;;;;;8.50;6.38;;;;;;;16.10;67.32;93286.72;5132081;27;20521;-62
2022/08/19 03:09:37;;;;;;;7.03;6.35;;;;;;;16.13;67.00;93273.66;5132179;27;20023;-62
2022/08/19 03:12:03;;;;;;;6.50;5.40;;;;;;;16.17;66.48;93285.09;5132277;27;20568;-63
2022/08/19 03:14:31;;;;;;;6.90;6.22;;;;;;;16.22;66.18;93282.00;5132251;27;20027;-61
2022/08/19 03:16:57;;;;;;;8.88;6.25;;;;;;;16.20;66.36;93286.72;5132172;27;20023;-61
2022/08/19 03:19:23;;;;;;;7.40;6.28;;;;;;;16.20;65.92;93290.19;5132084;27;20080;-62
2022/08/19 03:21:49;;;;;;;7.53;6.38;;;;;;;16.09;66.83;93284.53;5132098;27;20026;-61
2022/08/19 03:24:16;;;;;;;9.02;6.30;;;;;;;16.16;66.65;93289.19;5130824;27;20405;-62
2022/08/19 03:26:43;;;;;;;6.72;6.03;;;;;;;16.15;66.62;93288.47;5132068;27;20026;-63
2022/08/19 03:29:11;;;;;;;8.63;5.93;;;;;;;16.07;66.99;93285.09;5132136;27;20513;-64
2022/08/19 03:31:37;;;;;;;8.13;6.07;;;;;;;15.93;66.61;93284.84;5131264;27;20046;-63
2022/08/19 03:34:04;;;;;;;7.20;6.20;;;;;;;15.87;67.03;93275.31;5132137;27;20027;-64
2022/08/19 03:36:29;;;;;;;8.48;6.93;;;;;;;15.83;67.46;93288.97;5132066;27;20037;-65
2022/08/19 03:38:57;;;;;;;7.18;6.47;;;;;;;15.74;67.56;93273.00;5131749;27;20408;-65
2022/08/19 03:41:25;;;;;;;8.43;6.72;;;;;;;15.88;66.81;93283.06;5131896;27;20476;-64
2022/08/19 03:43:52;;;;;;;8.53;6.43;;;;;;;15.88;66.79;93283.06;5131445;27;20038;-67
2022/08/19 03:46:24;;;;;;;9.50;5.97;;;;;;;15.91;66.79;93289.53;5131543;27;20558;-68
2022/08/19 03:48:53;;;;;;;6.75;6.15;;;;;;;15.90;66.89;93293.63;5131612;27;20041;-68
2022/08/19 03:51:38;;;;;;;7.32;6.50;;;;;;;16.03;66.86;93292.44;5131823;27;20019;-67
2022/08/19 03:54:06;;;;;;;7.88;6.20;;;;;;;15.72;67.50;93287.47;5131605;27;20426;-66
2022/08/19 03:56:34;;;;;;;8.80;6.60;;;;;;;15.80;67.66;93292.91;5131885;27;20034;-65
2022/08/19 03:59:00;;;;;;;9.50;6.85;;;;;;;15.90;67.10;93293.63;5131715;27;20031;-70
2022/08/19 04:01:27;;;;;;;7.85;6.50;;;;;;;15.75;67.20;93282.78;5131584;27;20540;-66
2022/08/19 04:03:56;;;;;;;7.57;6.70;;;;;;;15.94;66.75;93297.44;5131426;27;20031;-70
2022/08/19 04:06:33;;;;;;;9.30;6.25;;;;;;;15.91;67.05;93292.31;5131342;27;20034;-68
2022/08/19 04:09:01;;;;;;;8.10;6.53;;;;;;;15.87;67.57;93289.94;5131335;27;20031;-66
2022/08/19 04:11:31;;;;;;;7.57;6.82;;;;;;;16.00;66.98;93288.78;5131545;27;20030;-69
2022/08/19 04:13:56;;;;;;;40.28;8.82;;;;;;;15.97;66.79;93292.00;5131556;27;20019;-69
2022/08/19 04:16:24;;;;;;;6.32;5.72;;;;;;;15.82;67.22;93290.25;5131535;27;20403;-69
2022/08/19 04:18:50;;;;;;;9.48;7.15;;;;;;;15.84;66.37;93293.94;5131213;27;20027;-68
2022/08/19 04:21:21;;;;;;;8.77;6.45;;;;;;;15.83;67.01;93286.88;5130336;28;20019;-64
2022/08/19 04:23:47;;;;;;;8.65;6.80;;;;;;;15.97;66.28;93289.22;5130981;28;20086;-64
2022/08/19 04:26:18;;;;;;;8.05;6.22;;;;;;;16.01;66.53;93301.38;5131350;28;20027;-64
2022/08/19 04:28:43;;;;;;;9.10;6.32;;;;;;;15.90;67.01;93299.19;5131230;28;20031;-63
2022/08/19 04:31:26;;;;;;;7.38;6.75;;;;;;;16.07;67.33;93303.88;5127356;28;20026;-64
2022/08/19 04:33:56;;;;;;;11.15;6.72;;;;;;;16.22;66.95;93312.63;5131239;28;20110;-64
2022/08/19 04:37:01;;;;;;;10.85;6.72;;;;;;;16.32;67.16;93313.38;5131337;28;20031;-65
2022/08/19 04:44:59;;;;;;;10.70;6.43;;;;;;;16.34;67.59;93309.97;5135506;27;20042;-68
2022/08/19 04:47:24;;;;;;;8.40;7.43;;;;;;;16.44;67.28;93313.47;5135306;27;20027;-67
2022/08/19 04:49:50;;;;;;;8.10;6.85;;;;;;;16.50;67.44;93311.16;5135029;27;20494;-64
2022/08/19 04:52:15;;;;;;;12.27;7.13;;;;;;;16.57;67.75;93304.66;5135271;27;20019;-64
2022/08/19 04:54:41;;;;;;;20.10;7.07;;;;;;;16.59;67.80;93307.59;5134758;27;20054;-67
2022/08/19 04:57:09;;;;;;;28.58;7.55;;;;;;;16.65;68.57;93310.81;5134506;27;20027;-65
2022/08/19 04:59:36;;;;;;;8.07;7.15;;;;;;;16.81;68.80;93323.06;5135164;27;20445;-67
2022/08/19 05:02:03;;;;;;;8.55;7.68;;;;;;;16.86;68.52;93318.50;5134725;27;20015;-69
2022/08/19 05:04:30;;;;;;;9.35;7.53;;;;;;;16.97;68.15;93318.59;5134768;27;20050;-66
2022/08/19 05:06:56;;;;;;;8.27;7.47;;;;;;;17.00;67.64;93322.97;5134906;27;20045;-66
2022/08/19 05:09:21;;;;;;;8.38;7.50;;;;;;;17.02;67.25;93320.31;5134661;27;20484;-66
2022/08/19 05:11:47;;;;;;;11.10;8.25;;;;;;;17.03;67.54;93321.81;5134575;27;20038;-66
2022/08/19 05:14:13;;;;;;;10.63;7.53;;;;;;;17.13;67.26;93324.56;5134283;27;20023;-65
2022/08/19 05:16:39;;;;;;;13.55;7.45;;;;;;;17.22;67.71;93327.28;5124804;27;20035;-60
2022/08/19 05:24:34;;;;;;;13.15;7.43;;;;;;;17.55;67.61;93335.06;5118394;27;20176;-67
2022/08/19 05:26:59;;;;;;;7.60;6.88;;;;;;;17.57;67.44;93335.91;5125149;27;20572;-67
2022/08/19 05:29:26;;;;;;;8.40;7.53;;;;;;;17.67;68.08;93330.28;5114699;27;20110;-66
2022/08/19 05:31:53;;;;;;;8.63;7.78;;;;;;;17.74;68.05;93329.34;5133419;27;20148;-66
2022/08/19 05:34:21;;;;;;;12.50;8.38;;;;;;;17.76;68.37;93329.50;5128063;27;20528;-64
2022/08/19 05:36:48;;;;;;;10.32;8.50;;;;;;;17.84;68.80;93327.97;5120587;27;20054;-64
2022/08/19 05:39:17;;;;;;;11.95;7.78;;;;;;;17.95;68.86;93326.53;5127262;27;20031;-63
2022/08/19 05:41:47;;;;;;;10.15;7.32;;;;;;;18.08;68.29;93323.91;5113844;27;20556;-65
2022/08/19 05:44:12;;;;;;;9.68;7.43;;;;;;;18.17;68.38;93319.56;5098756;27;20084;-63
2022/08/19 05:46:39;;;;;;;12.95;7.57;;;;;;;18.34;68.71;93316.50;5104956;27;20023;-64
2022/08/19 05:49:08;;;;;;;25.08;8.02;;;;;;;18.39;68.26;93306.28;5120161;27;20027;-60
2022/08/19 05:51:34;;;;;;;;;;;;;;;18.59;68.47;93324.34;5124639;27;20015;-62
2022/08/19 05:54:01;;;;;;;8.73;7.53;;;;;;;18.67;68.69;93324.84;5119594;27;20391;-63
2022/08/19 05:56:27;;;;;;;8.45;7.25;;;;;;;18.66;68.39;93312.94;5123599;27;20026;-63
2022/08/19 05:58:53;;;;;;;8.07;7.28;;;;;;;18.87;67.91;93324.03;5122569;27;20416;-63
2022/08/19 06:01:19;;;;;;;10.20;6.78;;;;;;;19.03;67.70;93323.56;5124082;27;20083;-62
2022/08/19 06:03:45;;;;;;;10.52;7.20;;;;;;;19.14;67.34;93326.38;5133782;27;20491;-64
2022/08/19 06:06:14;;;;;;;6.90;6.30;;;;;;;19.22;66.77;93326.84;5133789;27;20411;-63
2022/08/19 06:08:42;;;;;;;9.48;6.55;;;;;;;19.34;66.15;93324.06;5133483;27;20027;-63
2022/08/19 06:11:17;;;;;;;11.57;7.22;;;;;;;19.49;65.85;93329.19;5133630;27;20462;-64
2022/08/19 06:13:46;;;;;;;7.57;6.82;;;;;;;19.53;65.19;93307.03;5133802;27;20027;-64
2022/08/19 06:16:19;;;;;;;8.32;6.65;;;;;;;19.84;63.61;93329.13;5133264;27;20035;-64
2022/08/19 06:18:44;;;;;;;9.52;5.97;;;;;;;20.25;61.11;93324.47;5128437;27;20020;-65
2022/08/19 06:21:10;;;;;;;6.65;6.00;;;;;;;20.54;60.57;93324.00;5112573;28;20023;-65
2022/08/19 06:23:35;;;;;;;9.10;5.75;;;;;;;20.82;59.47;93329.09;5112389;28;20641;-65
2022/08/19 06:26:01;;;;;;;9.38;6.03;;;;;;;21.05;58.91;93328.94;5112653;28;20027;-65
2022/08/19 06:28:26;;;;;;;6.78;5.82;;;;;;;21.39;57.58;93329.31;5112482;28;20496;-64
2022/08/19 06:30:52;;;;;;;6.28;5.57;;;;;;;21.45;57.28;93335.25;5112258;28;20088;-65
2022/08/19 06:33:17;;;;;;;14.05;6.60;;;;;;;21.54;56.67;93337.84;5114698;27;20036;-66
2022/08/19 06:35:43;;;;;;;6.10;5.50;;;;;;;21.54;56.52;93337.13;5132686;27;20066;-66
2022/08/19 06:38:09;;;;;;;6.45;5.80;;;;;;;21.80;56.52;93332.84;5132637;27;20023;-63
2022/08/19 06:40:35;;;;;;;7.25;5.50;;;;;;;21.91;56.20;93328.47;5132797;27;20042;-62
2022/08/19 06:43:02;;;;;;;7.07;5.55;;;;;;;21.95;56.43;93331.50;5132749;27;20023;-62
2022/08/19 06:45:28;;;;;;;6.32;5.45;;;;;;;22.08;56.40;93333.56;5132468;27;20031;-62
2022/08/19 06:47:56;;;;;;;11.85;6.60;;;;;;;22.21;56.46;93332.81;5132792;27;20122;-56
2022/08/19 06:50:23;;;;;;;5.63;5.07;;;;;;;22.39;55.30;93330.88;5132344;27;20105;-68
2022/08/19 06:52:48;;;;;;;5.03;4.53;;;;;;;22.56;54.33;93327.50;5132367;27;20660;-64
2022/08/19 06:55:15;;;;;;;5.97;5.45;;;;;;;22.84;53.16;93316.84;5132246;27;20042;-64
2022/08/19 06:57:42;;;;;;;6.30;5.18;;;;;;;23.12;53.71;93323.78;5134312;27;20035;-66
2022/08/19 07:00:13;;;;;;;5.63;4.95;;;;;;;23.42;52.30;93330.09;5133761;27;20027;-64
2022/08/19 07:02:40;;;;;;;5.85;4.70;;;;;;;23.73;51.85;93321.63;5132522;27;20035;-64
2022/08/19 07:05:06;;;;;;;10.60;5.00;;;;;;;23.96;51.89;93321.91;5131337;27;20023;-65
2022/08/19 07:07:33;;;;;;;36.90;7.07;;;;;;;24.06;49.06;93301.91;5131193;27;20023;-66
2022/08/19 07:09:58;;;;;;;9.60;5.07;;;;;;;24.30;50.04;93324.75;5132256;27;20027;-67
2022/08/19 07:12:24;;;;;;;5.97;4.45;;;;;;;24.30;50.76;93319.81;5115770;27;20027;-64
2022/08/19 07:14:50;;;;;;;5.75;4.60;;;;;;;24.61;49.41;93325.34;5111754;28;20024;-64
2022/08/19 07:17:15;;;;;;;6.15;4.93;;;;;;;24.76;48.02;93324.56;5111641;28;20420;-62
2022/08/19 07:19:42;;;;;;;5.63;5.10;;;;;;;24.94;46.83;93323.81;5111276;28;20451;-61
2022/08/19 07:22:08;;;;;;;5.65;4.63;;;;;;;25.24;46.80;93319.31;5115429;27;20088;-61
2022/08/19 07:24:35;;;;;;;4.95;4.13;;;;;;;25.55;45.41;93319.81;5118964;27;20078;-63
2022/08/19 07:27:02;;;;;;;5.95;5.00;;;;;;;25.80;45.33;93329.16;5120877;27;20040;-63
2022/08/19 07:29:29;;;;;;;4.57;4.18;;;;;;;26.07;45.02;93323.81;5120096;27;20110;-61
2022/08/19 07:31:56;;;;;;;5.05;4.63;;;;;;;26.69;44.08;93321.63;5126219;27;20030;-61
2022/08/19 07:34:22;;;;;;;5.10;4.35;;;;;;;27.43;40.70;93318.31;5119063;27;20836;-67
2022/08/19 07:36:49;;;;;;;5.07;4.10;;;;;;;28.27;39.69;93316.41;5120537;27;20030;-67
2022/08/19 07:39:18;;;;;;;9.40;4.25;;;;;;;29.44;39.67;93316.41;5118775;27;20042;-64
2022/08/19 07:41:43;;;;;;;4.97;4.40;;;;;;;30.61;35.74;93305.22;5120033;27;20015;-65
2022/08/19 07:44:10;;;;;;;4.28;3.97;;;;;;;31.58;34.14;93312.50;5120506;27;20077;-62
2022/08/19 07:46:38;;;;;;;4.03;3.63;;;;;;;32.52;32.61;93307.19;5118285;27;20480;-65
2022/08/19 07:49:04;;;;;;;3.95;3.55;;;;;;;33.23;30.49;93306.41;5122431;27;20080;-66
2022/08/19 07:51:30;;;;;;;4.18;3.65;;;;;;;33.96;29.64;93303.97;5119407;27;20113;-62
2022/08/19 07:53:56;;;;;;;3.47;3.17;;;;;;;34.58;29.08;93300.63;5123270;27;20114;-59
2022/08/19 07:56:22;;;;;;;6.05;3.33;;;;;;;35.16;27.56;93309.28;5119008;27;20035;-62
2022/08/19 07:58:49;;;;;;;4.25;3.85;;;;;;;35.75;27.57;93310.69;5119267;27;20534;-65
2022/08/19 08:01:18;;;;;;;5.75;3.72;;;;;;;36.54;26.03;93318.31;5120423;27;20019;-64
2022/08/19 08:09:23;;;;;;;4.53;2.92;;;;;;;37.83;22.53;93315.19;5127762;27;20049;-63
2022/08/19 08:11:52;;;;;;;6.15;3.42;;;;;;;37.64;22.98;93314.59;5126028;27;20050;-61
2022/08/19 08:14:34;;;;;;;74.53;9.52;;;;;;;37.89;24.23;93289.16;5130808;27;20031;-62
2022/08/19 08:17:01;;;;;;;3.47;3.03;;;;;;;37.89;23.33;93309.34;5130674;27;20492;-56
2022/08/19 08:19:28;;;;;;;3.03;2.83;;;;;;;37.67;23.34;93310.25;5112486;27;20035;-59
2022/08/19 08:21:55;;;;;;;3.45;3.05;;;;;;;37.84;23.86;93305.78;5131052;28;20450;-63
2022/08/19 08:24:21;;;;;;;5.80;3.13;;;;;;;37.53;24.18;93312.56;5127624;28;20027;-62
2022/08/19 08:26:47;;;;;;;3.80;3.47;;;;;;;37.48;24.06;93311.16;5130847;28;20079;-65
2022/08/19 08:29:13;;;;;;;4.20;3.45;;;;;;;37.13;24.24;93302.09;5130542;28;20491;-63
2022/08/19 08:31:43;;;;;;;3.72;2.97;;;;;;;37.15;25.17;93313.59;5130087;28;20472;-57
2022/08/19 08:34:11;;;;;;;3.50;3.20;;;;;;;37.03;24.43;93305.06;5130600;28;20608;-59
2022/08/19 08:36:41;;;;;;;8.70;3.45;;;;;;;36.85;24.04;93305.16;5130869;28;20023;-59
2022/08/19 08:39:18;;;;;;;3.55;3.25;;;;;;;35.75;25.04;93281.22;5130923;28;20119;-56
2022/08/19 08:42:13;;;;;;;3.97;3.57;;;;;;;36.55;24.90;93308.22;5130701;28;20081;-57
2022/08/19 08:44:54;;;;;;;5.57;2.97;;;;;;;36.67;24.70;93306.00;5130557;28;20038;-63
2022/08/19 08:47:21;;;;;;;3.10;2.83;;;;;;;36.59;25.11;93297.41;5130539;28;20027;-58
2022/08/19 08:49:51;;;;;;;9.23;3.35;;;;;;;36.49;25.36;93300.38;5130893;28;20099;-62
2022/08/19 08:52:26;;;;;;;3.55;3.25;;;;;;;36.42;24.59;93293.19;5121969;28;20027;-58
2022/08/19 08:54:55;;;;;;;7.63;3.58;;;;;;;36.33;25.45;93288.91;5097224;28;20431;-59
2022/08/19 08:57:43;;;;;;;3.33;2.90;;;;;;;36.36;24.24;93291.03;5111243;28;20031;-60
2022/08/19 09:00:14;;;;;;;5.53;3.45;;;;;;;36.49;24.86;93286.69;5117388;28;20103;-62
2022/08/19 09:02:39;;;;;;;3.35;3.08;;;;;;;36.00;24.21;93279.00;5128735;28;20038;-60
2022/08/19 09:05:05;;;;;;;7.43;3.60;;;;;;;36.11;25.28;93283.25;5127260;28;20035;-62
2022/08/19 09:07:55;;;;;;;5.85;3.28;;;;;;;36.01;24.91;93281.16;5120088;28;20503;-62
2022/08/19 09:10:26;;;;;;;4.32;3.10;;;;;;;36.57;24.45;93288.06;5130262;28;20495;-61
2022/08/19 09:13:22;;;;;;;3.55;3.22;;;;;;;36.67;24.01;93285.84;5130592;28;20472;-62
2022/08/19 09:16:07;;;;;;;5.10;3.03;;;;;;;37.03;24.09;93279.16;5129624;28;20027;-61
2022/08/19 09:18:47;;;;;;;3.63;2.85;;;;;;;37.25;23.05;93285.41;5127872;28;20058;-61
2022/08/19 09:21:13;;;;;;;5.75;3.13;;;;;;;37.20;23.07;93271.81;5119051;28;20028;-59
2022/08/19 09:23:39;;;;;;;3.40;3.10;;;;;;;37.23;23.15;93271.03;5112353;28;20038;-61
2022/08/19 09:26:19;;;;;;;3.22;2.90;;;;;;;37.52;23.16;93274.41;5105539;28;20026;-63
2022/08/19 09:28:46;;;;;;;3.42;3.13;;;;;;;37.68;23.34;93273.53;5110799;28;20104;-59
2022/08/19 09:31:12;;;;;;;2.95;2.75;;;;;;;38.20;23.23;93267.19;5131978;27;20055;-61
2022/08/19 09:33:38;;;;;;;4.32;2.88;;;;;;;38.52;21.71;93268.94;5116010;27;20027;-58
2022/08/19 09:36:09;;;;;;;7.43;3.15;;;;;;;38.66;21.51;93266.53;5113530;27;20143;-62
2022/08/19 09:38:36;;;;;;;5.28;2.88;;;;;;;38.41;21.70;93256.09;5113033;27;20046;-60
2022/08/19 09:41:05;;;;;;;3.67;3.05;;;;;;;38.39;22.63;93259.72;5129089;27;20035;-62
2022/08/19 09:43:32;;;;;;;3.13;2.80;;;;;;;38.31;20.31;93259.84;5131614;27;20035;-63
2022/08/19 09:45:58;;;;;;;3.85;3.17;;;;;;;38.23;20.60;93254.13;5131362;27;20037;-57
2022/08/19 09:48:23;;;;;;;8.77;3.83;;;;;;;38.29;22.24;93253.38;5131738;27;20031;-63
2022/08/19 09:50:50;;;;;;;5.03;3.47;;;;;;;38.58;21.20;93252.25;5122834;27;20491;-57
2022/08/19 09:53:16;;;;;;;6.03;3.38;;;;;;;38.82;21.18;93238.91;5131502;27;20058;-60
2022/08/19 09:55:43;;;;;;;6.57;3.45;;;;;;;38.98;20.87;93248.06;5120726;27;20168;-67
2022/08/19 09:58:08;;;;;;;2.90;2.67;;;;;;;39.44;20.72;93246.53;5128433;27;20416;-65
2022/08/19 10:00:34;;;;;;;3.97;3.03;;;;;;;39.50;20.57;93249.34;5124580;27;20038;-66
2022/08/19 10:02:59;;;;;;;4.65;3.15;;;;;;;40.29;19.38;93239.88;5105134;27;20488;-65
2022/08/19 10:08:11;;;;;;;16.35;3.63;;;;;;;41.77;17.03;93234.19;5133524;27;20206;-58
2022/08/19 10:10:37;;;;;;;4.80;2.72;;;;;;;41.35;18.94;93245.41;5129360;27;20038;-63
2022/08/19 10:13:02;;;;;;;5.38;2.67;;;;;;;42.06;17.52;93234.84;5123591;27;20032;-61
2022/08/19 10:15:28;;;;;;;2.83;2.53;;;;;;;42.57;16.52;93237.72;5129047;27;20035;-64
2022/08/19 10:17:53;;;;;;;4.00;2.80;;;;;;;42.51;15.79;93235.00;5131991;27;20147;-64
2022/08/19 10:20:19;;;;;;;3.10;2.42;;;;;;;42.52;15.67;93230.59;5132470;27;20087;-64
2022/08/19 10:22:45;;;;;;;3.58;2.72;;;;;;;42.83;16.31;93225.28;5130227;27;20115;-61
2022/08/19 10:25:10;;;;;;;4.35;2.58;;;;;;;43.40;15.51;93217.66;5117265;27;20492;-63
2022/08/19 10:27:37;;;;;;;3.42;2.60;;;;;;;43.91;14.91;93219.50;5122872;27;20544;-60
2022/08/19 10:30:04;;;;;;;5.65;3.22;;;;;;;44.09;15.24;93219.59;5119812;27;20019;-62
2022/08/19 10:32:31;;;;;;;8.20;2.75;;;;;;;43.52;14.61;93220.13;5131492;27;20023;-60
2022/08/19 10:34:56;;;;;;;5.38;3.42;;;;;;;43.59;15.37;93227.16;5131605;27;20038;-64
2022/08/19 10:37:22;;;;;;;4.10;2.30;;;;;;;43.35;14.61;93222.91;5116375;27;20504;-65
2022/08/19 10:39:48;;;;;;;2.58;2.38;;;;;;;43.51;15.26;93225.22;5121238;27;20404;-62
2022/08/19 10:42:13;;;;;;;3.70;2.53;;;;;;;43.38;14.76;93224.22;5117166;27;20113;-64
2022/08/19 10:44:39;;;;;;;2.25;2.05;;;;;;;43.76;15.05;93213.50;5120606;27;20512;-63
2022/08/19 10:47:05;;;;;;;4.18;2.72;;;;;;;43.90;14.75;93226.84;5121985;27;20024;-69
2022/08/19 10:49:32;;;;;;;3.95;2.50;;;;;;;44.07;14.57;93219.69;5119780;27;20163;-67
2022/08/19 10:57:30;;;;;;;7.90;2.75;;;;;;;44.11;14.89;93195.53;5130346;27;20084;-61
2022/08/19 10:59:55;;;;;;;5.75;2.10;;;;;;;44.16;14.81;93220.09;5130580;27;20050;-63
2022/08/19 11:02:22;;;;;;;3.15;2.63;;;;;;;44.44;13.60;93215.41;5130535;27;20046;-63
2022/08/19 11:04:49;;;;;;;3.33;2.83;;;;;;;44.37;14.10;93217.81;5130354;27;20540;-63
2022/08/19 11:07:14;;;;;;;2.55;2.30;;;;;;;44.27;14.15;93216.00;5130389;27;20110;-62
2022/08/19 11:09:41;;;;;;;3.85;2.70;;;;;;;43.63;14.56;93215.38;5130318;27;20095;-62
2022/08/19 11:12:08;;;;;;;3.30;2.90;;;;;;;43.31;14.91;93207.78;5125830;27;20420;-64
2022/08/19 11:14:34;;;;;;;4.97;2.60;;;;;;;43.34;15.17;93206.25;5115868;27;20028;-63
2022/08/19 11:17:00;;;;;;;5.20;2.88;;;;;;;43.37;14.94;93199.56;5111650;28;20050;-63
2022/08/19 11:19:26;;;;;;;5.65;2.72;;;;;;;43.51;15.55;93207.09;5114024;27;20020;-61
2022/08/19 11:21:54;;;;;;;4.50;2.35;;;;;;;43.58;14.97;93211.91;5111892;27;20026;-63
2022/08/19 11:24:21;;;;;;;;;;;;;;;42.85;16.00;93224.50;5132238;27;20035;-62
2022/08/19 11:26:49;;;;;;;8.07;3.15;;;;;;;42.79;15.41;93210.16;5131568;27;20323;-60
2022/08/19 11:29:15;;;;;;;2.72;2.53;;;;;;;42.54;16.54;93216.00;5131222;27;20411;-61
2022/08/19 11:31:43;;;;;;;3.35;2.70;;;;;;;42.12;15.01;93186.06;5122391;27;20027;-65
2022/08/19 11:34:12;;;;;;;3.67;2.70;;;;;;;41.99;16.49;93207.47;5131511;27;20940;-60
2022/08/19 11:36:39;;;;;;;8.13;2.80;;;;;;;41.77;15.48;93202.28;5128931;27;20074;-61
2022/08/19 11:39:06;;;;;;;4.85;3.00;;;;;;;41.11;16.79;93201.84;5111058;28;20476;-61
2022/08/19 11:41:32;;;;;;;3.93;3.07;;;;;;;40.47;17.45;93183.81;5117517;27;20058;-60
2022/08/19 11:43:58;;;;;;;3.97;3.00;;;;;;;39.91;17.78;93205.94;5116900;27;20534;-61
2022/08/19 11:46:25;;;;;;;7.15;3.83;;;;;;;39.59;18.19;93204.41;5120297;27;20023;-61
2022/08/19 11:48:51;;;;;;;4.93;3.05;;;;;;;39.44;19.04;93197.44;5119879;27;20021;-61
2022/08/19 11:51:21;;;;;;;3.65;3.00;;;;;;;39.36;18.62;93194.69;5120954;27;20020;-65
2022/08/19 11:53:47;;;;;;;5.30;2.78;;;;;;;38.97;18.88;93191.03;5126161;27;20035;-63
2022/08/19 11:56:12;;;;;;;3.40;3.10;;;;;;;38.83;20.25;93176.84;5127106;27;20419;-61
2022/08/19 11:58:38;;;;;;;5.90;2.88;;;;;;;38.89;18.94;93189.00;5131345;27;20411;-62
2022/08/19 12:01:09;;;;;;;4.90;3.08;;;;;;;38.67;20.22;93163.38;5131011;27;20027;-62
2022/08/19 12:03:35;;;;;;;6.30;3.38;;;;;;;38.84;20.61;93178.25;5131495;27;20037;-61